sensor_id;sensor_type;location;lat;lon;timestamp;pressure;altitude;pressure_sealevel;temperature;humidity
10806;BME280;5455;53.224;6.000;2023-05-02T00:01:52;101930.59;;;10.14;100.00
10806;BME280;5455;53.224;6.000;2023-05-02T00:04:20;101929.63;;;10.02;100.00
10806;BME280;5455;53.224;6.000;2023-05-02T00:06:47;101938.13;;;9.88;100.00
10806;BME280;5455;53.224;6.000;2023-05-02T00:09:14;101938.59;;;9.81;100.00
10806;BME280;5455;53.224;6.000;2023-05-02T00:11:41;101935.06;;;9.72;100.00
10806;BME280;5455;53.224;6.000;2023-05-02T00:14:08;101937.81;;;9.72;100.00
10806;BME280;5455;53.224;6.000;2023-05-02T00:16:35;101937.00;;;9.72;100.00
10806;BME280;5455;53.224;6.000;2023-05-02T00:19:02;101938.13;;;9.71;100.00
10806;BME280;5455;53.224;6.000;2023-05-02T00:21:29;101936.53;;;9.70;100.00
10806;BME280;5455;53.224;6.000;2023-05-02T00:24:19;101936.69;;;9.65;100.00
10806;BME280;5455;53.224;6.000;2023-05-02T00:26:46;101944.81;;;9.61;100.00
10806;BME280;5455;53.224;6.000;2023-05-02T00:29:13;101944.94;;;9.65;100.00
10806;BME280;5455;53.224;6.000;2023-05-02T00:31:40;101943.50;;;9.67;100.00
10806;BME280;5455;53.224;6.000;2023-05-02T00:34:07;101939.94;;;9.67;100.00
10806;BME280;5455;53.224;6.000;2023-05-02T00:36:34;101940.22;;;9.74;100.00
10806;BME280;5455;53.224;6.000;2023-05-02T00:39:01;101940.72;;;9.76;100.00
10806;BME280;5455;53.224;6.000;2023-05-02T00:41:29;101952.53;;;9.76;100.00
10806;BME280;5455;53.224;6.000;2023-05-02T00:43:57;101944.13;;;9.81;100.00
10806;BME280;5455;53.224;6.000;2023-05-02T00:46:24;101945.41;;;9.84;100.00
10806;BME280;5455;53.224;6.000;2023-05-02T00:48:52;101953.50;;;9.80;100.00
10806;BME280;5455;53.224;6.000;2023-05-02T00:51:19;101963.41;;;9.81;100.00
10806;BME280;5455;53.224;6.000;2023-05-02T00:53:46;101953.84;;;9.79;100.00
10806;BME280;5455;53.224;6.000;2023-05-02T00:56:13;101963.53;;;9.76;100.00
10806;BME280;5455;53.224;6.000;2023-05-02T00:58:40;101970.69;;;9.77;100.00
10806;BME280;5455;53.224;6.000;2023-05-02T01:04:13;101967.28;;;9.72;100.00
10806;BME280;5455;53.224;6.000;2023-05-02T01:15:05;101986.25;;;9.56;100.00
10806;BME280;5455;53.224;6.000;2023-05-02T01:17:34;101996.97;;;9.49;100.00
10806;BME280;5455;53.224;6.000;2023-05-02T01:20:06;102000.03;;;9.48;100.00
10806;BME280;5455;53.224;6.000;2023-05-02T01:22:37;101995.34;;;9.48;100.00
10806;BME280;5455;53.224;6.000;2023-05-02T01:25:21;102004.53;;;9.43;100.00
10806;BME280;5455;53.224;6.000;2023-05-02T01:28:20;102002.13;;;9.42;100.00
10806;BME280;5455;53.224;6.000;2023-05-02T01:30:55;102016.06;;;9.37;100.00
10806;BME280;5455;53.224;6.000;2023-05-02T01:33:24;102021.22;;;9.30;100.00
10806;BME280;5455;53.224;6.000;2023-05-02T01:35:54;102015.53;;;9.26;100.00
10806;BME280;5455;53.224;6.000;2023-05-02T01:38:23;102020.22;;;9.26;100.00
10806;BME280;5455;53.224;6.000;2023-05-02T01:40:53;102028.66;;;9.21;100.00
10806;BME280;5455;53.224;6.000;2023-05-02T01:43:21;102031.22;;;9.17;100.00
10806;BME280;5455;53.224;6.000;2023-05-02T01:45:49;102057.13;;;9.16;100.00
10806;BME280;5455;53.224;6.000;2023-05-02T01:48:18;102055.81;;;9.14;100.00
10806;BME280;5455;53.224;6.000;2023-05-02T01:50:46;102062.28;;;9.09;100.00
10806;BME280;5455;53.224;6.000;2023-05-02T01:53:13;102062.75;;;9.03;100.00
10806;BME280;5455;53.224;6.000;2023-05-02T01:55:43;102060.16;;;8.98;100.00
10806;BME280;5455;53.224;6.000;2023-05-02T01:58:13;102069.69;;;8.92;100.00
10806;BME280;5455;53.224;6.000;2023-05-02T02:00:41;102067.56;;;8.89;100.00
10806;BME280;5455;53.224;6.000;2023-05-02T02:03:12;102078.69;;;8.83;100.00
10806;BME280;5455;53.224;6.000;2023-05-02T02:05:40;102086.44;;;8.81;100.00
10806;BME280;5455;53.224;6.000;2023-05-02T02:08:08;102086.44;;;8.81;100.00
10806;BME280;5455;53.224;6.000;2023-05-02T02:10:40;102095.81;;;8.80;100.00
10806;BME280;5455;53.224;6.000;2023-05-02T02:13:16;102104.22;;;8.75;100.00
10806;BME280;5455;53.224;6.000;2023-05-02T02:15:48;102113.34;;;8.62;100.00
10806;BME280;5455;53.224;6.000;2023-05-02T02:18:20;102108.31;;;8.56;100.00
10806;BME280;5455;53.224;6.000;2023-05-02T02:20:51;102116.25;;;8.57;100.00
10806;BME280;5455;53.224;6.000;2023-05-02T02:23:22;102120.81;;;8.62;100.00
10806;BME280;5455;53.224;6.000;2023-05-02T02:25:53;102124.81;;;8.56;100.00
10806;BME280;5455;53.224;6.000;2023-05-02T02:28:21;102124.81;;;8.56;100.00
10806;BME280;5455;53.224;6.000;2023-05-02T02:30:48;102125.75;;;8.51;100.00
10806;BME280;5455;53.224;6.000;2023-05-02T02:33:15;102130.22;;;8.47;100.00
10806;BME280;5455;53.224;6.000;2023-05-02T02:35:45;102136.75;;;8.51;100.00
10806;BME280;5455;53.224;6.000;2023-05-02T02:38:28;102147.25;;;8.49;100.00
10806;BME280;5455;53.224;6.000;2023-05-02T02:46:47;102152.22;;;8.47;100.00
10806;BME280;5455;53.224;6.000;2023-05-02T02:49:27;102160.66;;;8.51;100.00
10806;BME280;5455;53.224;6.000;2023-05-02T02:52:09;102164.22;;;8.51;100.00
10806;BME280;5455;53.224;6.000;2023-05-02T02:54:45;102154.47;;;8.45;100.00
10806;BME280;5455;53.224;6.000;2023-05-02T02:57:27;102178.03;;;8.38;100.00
10806;BME280;5455;53.224;6.000;2023-05-02T03:00:01;102176.34;;;8.28;100.00
10806;BME280;5455;53.224;6.000;2023-05-02T03:02:31;102179.09;;;8.28;100.00
10806;BME280;5455;53.224;6.000;2023-05-02T03:05:01;102182.22;;;8.21;100.00
10806;BME280;5455;53.224;6.000;2023-05-02T03:07:29;102177.84;;;8.20;100.00
10806;BME280;5455;53.224;6.000;2023-05-02T03:10:02;102188.84;;;8.20;100.00
10806;BME280;5455;53.224;6.000;2023-05-02T03:12:31;102196.28;;;8.20;100.00
10806;BME280;5455;53.224;6.000;2023-05-02T03:17:46;102209.50;;;8.18;100.00
10806;BME280;5455;53.224;6.000;2023-05-02T03:20:13;102204.00;;;8.18;100.00
10806;BME280;5455;53.224;6.000;2023-05-02T03:22:40;102213.41;;;8.17;100.00
10806;BME280;5455;53.224;6.000;2023-05-02T03:25:08;102213.69;;;8.15;100.00
10806;BME280;5455;53.224;6.000;2023-05-02T03:27:42;102218.91;;;8.17;100.00
10806;BME280;5455;53.224;6.000;2023-05-02T03:30:10;102224.88;;;8.19;100.00
10806;BME280;5455;53.224;6.000;2023-05-02T03:32:37;102224.88;;;8.19;100.00
10806;BME280;5455;53.224;6.000;2023-05-02T03:35:05;102234.25;;;8.18;100.00
10806;BME280;5455;53.224;6.000;2023-05-02T03:37:37;102234.56;;;8.16;100.00
10806;BME280;5455;53.224;6.000;2023-05-02T03:40:05;102242.47;;;8.18;100.00
10806;BME280;5455;53.224;6.000;2023-05-02T03:42:34;102236.16;;;8.17;100.00
10806;BME280;5455;53.224;6.000;2023-05-02T03:45:20;102240.06;;;8.16;100.00
10806;BME280;5455;53.224;6.000;2023-05-02T03:47:49;102248.50;;;8.20;100.00
10806;BME280;5455;53.224;6.000;2023-05-02T03:50:17;102261.22;;;8.16;100.00
10806;BME280;5455;53.224;6.000;2023-05-02T03:52:47;102247.41;;;8.07;100.00
10806;BME280;5455;53.224;6.000;2023-05-02T03:55:18;102252.06;;;8.07;100.00
10806;BME280;5455;53.224;6.000;2023-05-02T03:57:46;102253.78;;;8.03;100.00
10806;BME280;5455;53.224;6.000;2023-05-02T04:00:13;102259.69;;;7.96;100.00
10806;BME280;5455;53.224;6.000;2023-05-02T04:02:47;102269.38;;;7.94;100.00
10806;BME280;5455;53.224;6.000;2023-05-02T04:05:18;102268.78;;;7.83;100.00
10806;BME280;5455;53.224;6.000;2023-05-02T04:07:47;102272.13;;;7.80;100.00
10806;BME280;5455;53.224;6.000;2023-05-02T04:10:14;102275.78;;;7.75;100.00
10806;BME280;5455;53.224;6.000;2023-05-02T04:12:50;102276.31;;;7.78;100.00
10806;BME280;5455;53.224;6.000;2023-05-02T04:15:18;102279.56;;;7.80;100.00
10806;BME280;5455;53.224;6.000;2023-05-02T04:17:47;102283.41;;;7.78;100.00
10806;BME280;5455;53.224;6.000;2023-05-02T04:20:15;102285.25;;;7.83;100.00
10806;BME280;5455;53.224;6.000;2023-05-02T04:22:48;102285.53;;;7.82;100.00
10806;BME280;5455;53.224;6.000;2023-05-02T04:25:16;102286.88;;;7.84;100.00
10806;BME280;5455;53.224;6.000;2023-05-02T04:27:43;102301.34;;;7.90;100.00
10806;BME280;5455;53.224;6.000;2023-05-02T04:30:14;102298.16;;;7.96;100.00
10806;BME280;5455;53.224;6.000;2023-05-02T04:32:46;102298.56;;;8.03;100.00
10806;BME280;5455;53.224;6.000;2023-05-02T04:35:14;102299.88;;;8.06;100.00
10806;BME280;5455;53.224;6.000;2023-05-02T04:37:41;102306.81;;;8.03;100.00
10806;BME280;5455;53.224;6.000;2023-05-02T04:40:09;102305.69;;;8.04;100.00
10806;BME280;5455;53.224;6.000;2023-05-02T04:42:37;102307.50;;;8.09;100.00
10806;BME280;5455;53.224;6.000;2023-05-02T04:45:15;102317.19;;;8.06;100.00
10806;BME280;5455;53.224;6.000;2023-05-02T04:47:43;102317.78;;;8.03;100.00
10806;BME280;5455;53.224;6.000;2023-05-02T04:50:10;102330.72;;;8.03;100.00
10806;BME280;5455;53.224;6.000;2023-05-02T04:52:38;102335.38;;;8.02;100.00
10806;BME280;5455;53.224;6.000;2023-05-02T04:55:06;102346.81;;;7.96;100.00
10806;BME280;5455;53.224;6.000;2023-05-02T04:57:36;102344.66;;;7.93;100.00
10806;BME280;5455;53.224;6.000;2023-05-02T05:00:03;102345.97;;;7.95;100.00
10806;BME280;5455;53.224;6.000;2023-05-02T05:02:31;102349.84;;;7.94;100.00
10806;BME280;5455;53.224;6.000;2023-05-02T05:05:00;102365.81;;;7.92;99.30
10806;BME280;5455;53.224;6.000;2023-05-02T05:07:29;102363.56;;;7.94;100.00
10806;BME280;5455;53.224;6.000;2023-05-02T05:09:57;102360.31;;;7.92;99.69
10806;BME280;5455;53.224;6.000;2023-05-02T05:12:28;102361.03;;;7.98;97.72
10806;BME280;5455;53.224;6.000;2023-05-02T05:14:56;102365.91;;;8.01;96.88
10806;BME280;5455;53.224;6.000;2023-05-02T05:17:25;102362.56;;;8.04;97.00
10806;BME280;5455;53.224;6.000;2023-05-02T05:19:52;102369.09;;;8.08;98.40
10806;BME280;5455;53.224;6.000;2023-05-02T05:22:19;102370.41;;;8.10;96.25
10806;BME280;5455;53.224;6.000;2023-05-02T05:24:53;102374.59;;;8.08;92.30
10806;BME280;5455;53.224;6.000;2023-05-02T05:27:26;102370.09;;;8.12;92.08
10806;BME280;5455;53.224;6.000;2023-05-02T05:29:53;102371.53;;;8.23;92.22
10806;BME280;5455;53.224;6.000;2023-05-02T05:32:20;102377.81;;;8.23;89.71
10806;BME280;5455;53.224;6.000;2023-05-02T05:34:52;102382.19;;;8.24;87.63
10806;BME280;5455;53.224;6.000;2023-05-02T05:37:22;102383.47;;;8.32;87.69
10806;BME280;5455;53.224;6.000;2023-05-02T05:39:49;102381.50;;;8.32;87.30
10806;BME280;5455;53.224;6.000;2023-05-02T05:42:16;102386.91;;;8.38;88.42
10806;BME280;5455;53.224;6.000;2023-05-02T05:44:46;102390.97;;;8.40;87.42
10806;BME280;5455;53.224;6.000;2023-05-02T05:47:19;102395.97;;;8.38;87.61
10806;BME280;5455;53.224;6.000;2023-05-02T05:49:53;102399.97;;;8.32;89.73
10806;BME280;5455;53.224;6.000;2023-05-02T05:52:23;102404.84;;;8.35;91.38
10806;BME280;5455;53.224;6.000;2023-05-02T05:54:53;102410.63;;;8.34;92.46
10806;BME280;5455;53.224;6.000;2023-05-02T05:57:25;102420.28;;;8.45;92.79
10806;BME280;5455;53.224;6.000;2023-05-02T05:59:54;102417.03;;;8.43;89.06
10806;BME280;5455;53.224;6.000;2023-05-02T06:02:22;102420.50;;;8.48;89.26
10806;BME280;5455;53.224;6.000;2023-05-02T06:04:49;102427.94;;;8.61;87.17
10806;BME280;5455;53.224;6.000;2023-05-02T06:07:19;102431.19;;;8.63;84.22
10806;BME280;5455;53.224;6.000;2023-05-02T06:09:46;102428.84;;;8.57;83.13
10806;BME280;5455;53.224;6.000;2023-05-02T06:12:14;102429.97;;;8.56;80.95
10806;BME280;5455;53.224;6.000;2023-05-02T06:14:43;102434.25;;;8.62;77.43
10806;BME280;5455;53.224;6.000;2023-05-02T06:17:11;102444.09;;;8.63;76.76
10806;BME280;5455;53.224;6.000;2023-05-02T06:19:38;102453.59;;;8.70;76.80
10806;BME280;5455;53.224;6.000;2023-05-02T06:22:05;102446.84;;;8.76;77.19
10806;BME280;5455;53.224;6.000;2023-05-02T06:24:32;102453.34;;;8.80;77.25
10806;BME280;5455;53.224;6.000;2023-05-02T06:26:59;102453.66;;;8.79;78.42
10806;BME280;5455;53.224;6.000;2023-05-02T06:29:26;102455.09;;;8.76;78.88
10806;BME280;5455;53.224;6.000;2023-05-02T06:31:56;102470.47;;;8.77;81.71
10806;BME280;5455;53.224;6.000;2023-05-02T06:34:23;102463.34;;;8.63;82.39
10806;BME280;5455;53.224;6.000;2023-05-02T06:36:54;102477.94;;;8.50;88.62
10806;BME280;5455;53.224;6.000;2023-05-02T06:39:24;102483.41;;;8.36;94.81
10806;BME280;5455;53.224;6.000;2023-05-02T06:42:00;102481.25;;;8.33;98.65
10806;BME280;5455;53.224;6.000;2023-05-02T06:44:28;102489.31;;;8.57;100.00
10806;BME280;5455;53.224;6.000;2023-05-02T06:46:55;102481.06;;;8.57;100.00
10806;BME280;5455;53.224;6.000;2023-05-02T06:49:22;102496.56;;;8.66;100.00
10806;BME280;5455;53.224;6.000;2023-05-02T06:51:49;102501.34;;;8.61;100.00
10806;BME280;5455;53.224;6.000;2023-05-02T06:54:16;102505.09;;;8.78;100.00
10806;BME280;5455;53.224;6.000;2023-05-02T06:56:43;102507.25;;;8.81;100.00
10806;BME280;5455;53.224;6.000;2023-05-02T06:59:10;102508.25;;;8.72;100.00
10806;BME280;5455;53.224;6.000;2023-05-02T07:01:37;102518.97;;;8.73;100.00
10806;BME280;5455;53.224;6.000;2023-05-02T07:04:04;102509.69;;;8.69;100.00
10806;BME280;5455;53.224;6.000;2023-05-02T07:06:32;102511.13;;;8.94;100.00
10806;BME280;5455;53.224;6.000;2023-05-02T07:08:59;102517.00;;;9.15;100.00
10806;BME280;5455;53.224;6.000;2023-05-02T07:11:26;102523.47;;;9.32;100.00
10806;BME280;5455;53.224;6.000;2023-05-02T07:13:54;102527.34;;;9.31;94.27
10806;BME280;5455;53.224;6.000;2023-05-02T07:16:21;102530.22;;;9.26;90.63
10806;BME280;5455;53.224;6.000;2023-05-02T07:18:48;102544.97;;;9.44;89.80
10806;BME280;5455;53.224;6.000;2023-05-02T07:21:15;102540.94;;;9.64;83.54
10806;BME280;5455;53.224;6.000;2023-05-02T07:23:44;102541.66;;;9.56;78.75
10806;BME280;5455;53.224;6.000;2023-05-02T07:26:11;102544.94;;;9.58;76.50
10806;BME280;5455;53.224;6.000;2023-05-02T07:28:39;102542.47;;;9.56;76.84
10806;BME280;5455;53.224;6.000;2023-05-02T07:31:06;102548.19;;;9.60;72.89
10806;BME280;5455;53.224;6.000;2023-05-02T07:33:33;102543.09;;;9.53;74.93
10806;BME280;5455;53.224;6.000;2023-05-02T07:36:00;102554.81;;;9.59;74.00
10806;BME280;5455;53.224;6.000;2023-05-02T07:38:28;102557.66;;;9.67;72.00
10806;BME280;5455;53.224;6.000;2023-05-02T07:40:58;102562.28;;;9.80;74.05
10806;BME280;5455;53.224;6.000;2023-05-02T07:43:25;102562.91;;;10.13;73.07
10806;BME280;5455;53.224;6.000;2023-05-02T07:45:53;102574.69;;;10.58;72.40
10806;BME280;5455;53.224;6.000;2023-05-02T07:48:20;102579.03;;;10.50;67.39
10806;BME280;5455;53.224;6.000;2023-05-02T07:50:47;102583.88;;;10.23;67.28
10806;BME280;5455;53.224;6.000;2023-05-02T07:53:14;102581.34;;;10.13;64.42
10806;BME280;5455;53.224;6.000;2023-05-02T07:55:41;102579.03;;;10.06;62.59
10806;BME280;5455;53.224;6.000;2023-05-02T07:58:08;102579.53;;;10.08;62.61
10806;BME280;5455;53.224;6.000;2023-05-02T08:00:35;102582.59;;;10.07;63.80
10806;BME280;5455;53.224;6.000;2023-05-02T08:03:03;102581.81;;;10.06;64.30
10806;BME280;5455;53.224;6.000;2023-05-02T08:05:31;102585.81;;;10.22;65.11
10806;BME280;5455;53.224;6.000;2023-05-02T08:07:58;102587.56;;;10.40;64.14
10806;BME280;5455;53.224;6.000;2023-05-02T08:10:27;102581.91;;;10.45;62.13
10806;BME280;5455;53.224;6.000;2023-05-02T08:12:54;102581.59;;;10.47;64.94
10806;BME280;5455;53.224;6.000;2023-05-02T08:15:22;102578.75;;;10.61;63.50
10806;BME280;5455;53.224;6.000;2023-05-02T08:17:49;102585.53;;;10.55;63.87
10806;BME280;5455;53.224;6.000;2023-05-02T08:20:16;102573.56;;;10.59;64.80
10806;BME280;5455;53.224;6.000;2023-05-02T08:22:43;102579.38;;;10.58;64.64
10806;BME280;5455;53.224;6.000;2023-05-02T08:25:11;102590.09;;;10.59;63.27
10806;BME280;5455;53.224;6.000;2023-05-02T08:27:38;102597.19;;;10.51;63.86
10806;BME280;5455;53.224;6.000;2023-05-02T08:30:05;102609.84;;;10.52;63.60
10806;BME280;5455;53.224;6.000;2023-05-02T08:32:34;102607.44;;;10.51;64.62
10806;BME280;5455;53.224;6.000;2023-05-02T08:35:01;102606.25;;;10.74;64.65
10806;BME280;5455;53.224;6.000;2023-05-02T08:37:28;102618.78;;;11.20;64.03
10806;BME280;5455;53.224;6.000;2023-05-02T08:39:55;102626.56;;;11.18;61.52
10806;BME280;5455;53.224;6.000;2023-05-02T08:42:22;102627.38;;;11.18;60.85
10806;BME280;5455;53.224;6.000;2023-05-02T08:44:50;102626.28;;;11.28;61.39
10806;BME280;5455;53.224;6.000;2023-05-02T08:47:18;102624.28;;;11.11;58.60
10806;BME280;5455;53.224;6.000;2023-05-02T08:49:48;102628.94;;;10.93;60.99
10806;BME280;5455;53.224;6.000;2023-05-02T08:52:18;102636.38;;;11.32;58.58
10806;BME280;5455;53.224;6.000;2023-05-02T08:54:46;102640.66;;;11.07;57.58
10806;BME280;5455;53.224;6.000;2023-05-02T08:57:13;102649.47;;;11.18;56.64
10806;BME280;5455;53.224;6.000;2023-05-02T08:59:41;102640.47;;;11.04;56.38
10806;BME280;5455;53.224;6.000;2023-05-02T09:02:22;102646.31;;;11.02;58.40
10806;BME280;5455;53.224;6.000;2023-05-02T09:04:53;102645.44;;;11.33;58.14
10806;BME280;5455;53.224;6.000;2023-05-02T09:07:23;102648.41;;;11.45;55.21
10806;BME280;5455;53.224;6.000;2023-05-02T09:09:50;102644.31;;;11.34;56.58
10806;BME280;5455;53.224;6.000;2023-05-02T09:12:23;102648.81;;;11.69;56.64
10806;BME280;5455;53.224;6.000;2023-05-02T09:15:12;102643.34;;;12.03;57.53
10806;BME280;5455;53.224;6.000;2023-05-02T09:17:44;102652.94;;;11.89;56.41
10806;BME280;5455;53.224;6.000;2023-05-02T09:20:14;102657.25;;;11.64;57.81
10806;BME280;5455;53.224;6.000;2023-05-02T09:22:51;102663.47;;;11.70;56.44
10806;BME280;5455;53.224;6.000;2023-05-02T09:25:19;102662.56;;;11.43;59.07
10806;BME280;5455;53.224;6.000;2023-05-02T09:27:53;102670.00;;;11.34;60.45
10806;BME280;5455;53.224;6.000;2023-05-02T09:30:24;102671.66;;;11.35;61.05
10806;BME280;5455;53.224;6.000;2023-05-02T09:32:52;102678.25;;;11.26;61.78
10806;BME280;5455;53.224;6.000;2023-05-02T09:35:22;102684.66;;;11.04;62.80
10806;BME280;5455;53.224;6.000;2023-05-02T09:37:54;102683.50;;;10.96;63.01
10806;BME280;5455;53.224;6.000;2023-05-02T09:40:22;102676.72;;;10.80;62.71
10806;BME280;5455;53.224;6.000;2023-05-02T09:42:51;102672.16;;;11.06;62.05
10806;BME280;5455;53.224;6.000;2023-05-02T09:45:19;102684.31;;;11.45;60.75
10806;BME280;5455;53.224;6.000;2023-05-02T09:47:48;102679.59;;;11.85;59.70
10806;BME280;5455;53.224;6.000;2023-05-02T09:50:35;102687.47;;;11.60;60.59
10806;BME280;5455;53.224;6.000;2023-05-02T09:53:07;102684.97;;;11.02;59.95
10806;BME280;5455;53.224;6.000;2023-05-02T09:55:35;102684.13;;;10.71;60.92
10806;BME280;5455;53.224;6.000;2023-05-02T09:58:02;102682.34;;;10.97;62.57
10806;BME280;5455;53.224;6.000;2023-05-02T10:00:42;102683.16;;;10.98;61.70
10806;BME280;5455;53.224;6.000;2023-05-02T10:03:10;102692.41;;;10.93;62.49
10806;BME280;5455;53.224;6.000;2023-05-02T10:05:43;102682.06;;;11.47;62.50
10806;BME280;5455;53.224;6.000;2023-05-02T10:08:11;102694.28;;;12.20;60.31
10806;BME280;5455;53.224;6.000;2023-05-02T10:10:40;102693.47;;;12.19;60.10
10806;BME280;5455;53.224;6.000;2023-05-02T10:13:12;102708.53;;;11.96;64.68
10806;BME280;5455;53.224;6.000;2023-05-02T10:15:43;102703.59;;;11.28;69.98
10806;BME280;5455;53.224;6.000;2023-05-02T10:18:19;102710.66;;;11.12;72.74
10806;BME280;5455;53.224;6.000;2023-05-02T10:20:54;102713.31;;;11.56;73.90
10806;BME280;5455;53.224;6.000;2023-05-02T10:23:25;102711.50;;;11.60;72.63
10806;BME280;5455;53.224;6.000;2023-05-02T10:25:53;102718.00;;;11.47;70.10
10806;BME280;5455;53.224;6.000;2023-05-02T10:28:21;102711.69;;;11.63;70.35
10806;BME280;5455;53.224;6.000;2023-05-02T10:30:49;102717.81;;;11.91;68.09
10806;BME280;5455;53.224;6.000;2023-05-02T10:33:17;102712.09;;;11.79;65.31
10806;BME280;5455;53.224;6.000;2023-05-02T10:35:46;102719.94;;;11.86;67.61
10806;BME280;5455;53.224;6.000;2023-05-02T10:38:19;102721.28;;;12.23;67.90
10806;BME280;5455;53.224;6.000;2023-05-02T10:40:56;102719.00;;;12.50;67.70
10806;BME280;5455;53.224;6.000;2023-05-02T10:43:29;102725.97;;;12.05;64.75
10806;BME280;5455;53.224;6.000;2023-05-02T10:45:57;102717.78;;;11.74;64.14
10806;BME280;5455;53.224;6.000;2023-05-02T10:48:25;102713.59;;;11.46;65.27
10806;BME280;5455;53.224;6.000;2023-05-02T10:50:58;102719.41;;;11.75;67.36
10806;BME280;5455;53.224;6.000;2023-05-02T10:53:32;102728.91;;;12.08;65.33
10806;BME280;5455;53.224;6.000;2023-05-02T10:58:41;102735.72;;;11.24;65.44
10806;BME280;5455;53.224;6.000;2023-05-02T11:04:05;102734.72;;;11.90;64.23
10806;BME280;5455;53.224;6.000;2023-05-02T11:11:51;102738.75;;;11.75;63.70
10806;BME280;5455;53.224;6.000;2023-05-02T11:19:29;102742.31;;;11.36;71.12
10806;BME280;5455;53.224;6.000;2023-05-02T11:24:53;102740.03;;;11.78;66.94
10806;BME280;5455;53.224;6.000;2023-05-02T11:35:16;102750.88;;;12.13;63.96
10806;BME280;5455;53.224;6.000;2023-05-02T11:37:52;102753.16;;;12.20;60.90
10806;BME280;5455;53.224;6.000;2023-05-02T11:40:20;102741.94;;;12.51;63.82
10806;BME280;5455;53.224;6.000;2023-05-02T11:42:47;102762.75;;;13.00;62.04
10806;BME280;5455;53.224;6.000;2023-05-02T11:45:15;102758.06;;;12.66;61.24
10806;BME280;5455;53.224;6.000;2023-05-02T11:47:42;102764.72;;;12.65;60.18
10806;BME280;5455;53.224;6.000;2023-05-02T11:50:09;102769.59;;;12.68;60.72
10806;BME280;5455;53.224;6.000;2023-05-02T11:52:38;102772.72;;;12.58;60.38
10806;BME280;5455;53.224;6.000;2023-05-02T11:55:07;102767.84;;;12.55;61.19
10806;BME280;5455;53.224;6.000;2023-05-02T11:57:37;102772.22;;;12.73;61.18
10806;BME280;5455;53.224;6.000;2023-05-02T12:00:07;102779.69;;;12.47;62.42
10806;BME280;5455;53.224;6.000;2023-05-02T12:02:46;102774.19;;;12.55;62.20
10806;BME280;5455;53.224;6.000;2023-05-02T12:05:26;102789.31;;;12.49;61.84
10806;BME280;5455;53.224;6.000;2023-05-02T12:07:55;102788.56;;;11.92;61.82
10806;BME280;5455;53.224;6.000;2023-05-02T12:10:34;102786.13;;;11.99;61.66
10806;BME280;5455;53.224;6.000;2023-05-02T12:13:04;102792.41;;;12.48;60.68
10806;BME280;5455;53.224;6.000;2023-05-02T12:15:32;102790.09;;;12.15;58.89
10806;BME280;5455;53.224;6.000;2023-05-02T12:17:59;102797.53;;;12.06;60.21
10806;BME280;5455;53.224;6.000;2023-05-02T12:20:27;102788.19;;;11.77;61.59
10806;BME280;5455;53.224;6.000;2023-05-02T12:22:54;102791.97;;;11.58;65.33
10806;BME280;5455;53.224;6.000;2023-05-02T12:25:21;102790.34;;;11.27;67.78
10806;BME280;5455;53.224;6.000;2023-05-02T12:27:59;102797.84;;;11.04;70.04
10806;BME280;5455;53.224;6.000;2023-05-02T12:30:28;102794.28;;;10.81;72.39
10806;BME280;5455;53.224;6.000;2023-05-02T12:32:56;102796.19;;;11.03;74.25
10806;BME280;5455;53.224;6.000;2023-05-02T12:35:24;102802.78;;;11.16;73.37
10806;BME280;5455;53.224;6.000;2023-05-02T12:37:52;102799.81;;;11.34;75.01
10806;BME280;5455;53.224;6.000;2023-05-02T12:40:20;102810.59;;;11.75;70.10
10806;BME280;5455;53.224;6.000;2023-05-02T12:42:59;102823.25;;;12.07;66.95
10806;BME280;5455;53.224;6.000;2023-05-02T12:45:30;102827.75;;;11.94;62.11
10806;BME280;5455;53.224;6.000;2023-05-02T12:48:23;102823.28;;;12.15;60.99
10806;BME280;5455;53.224;6.000;2023-05-02T12:50:53;102827.84;;;12.29;60.21
10806;BME280;5455;53.224;6.000;2023-05-02T12:53:38;102831.16;;;11.91;61.26
10806;BME280;5455;53.224;6.000;2023-05-02T12:56:06;102830.28;;;12.13;63.16
10806;BME280;5455;53.224;6.000;2023-05-02T12:58:44;102829.19;;;12.57;63.80
10806;BME280;5455;53.224;6.000;2023-05-02T13:01:13;102833.06;;;12.39;63.52
10806;BME280;5455;53.224;6.000;2023-05-02T13:03:42;102841.69;;;12.29;60.92
10806;BME280;5455;53.224;6.000;2023-05-02T13:06:09;102850.78;;;12.21;60.51
10806;BME280;5455;53.224;6.000;2023-05-02T13:08:37;102850.09;;;12.06;58.86
10806;BME280;5455;53.224;6.000;2023-05-02T13:11:04;102847.03;;;12.17;58.33
10806;BME280;5455;53.224;6.000;2023-05-02T13:13:31;102855.22;;;12.39;58.64
10806;BME280;5455;53.224;6.000;2023-05-02T13:15:58;102849.47;;;12.18;59.01
10806;BME280;5455;53.224;6.000;2023-05-02T13:18:25;102841.75;;;12.54;60.60
10806;BME280;5455;53.224;6.000;2023-05-02T13:20:54;102850.69;;;12.77;59.45
10806;BME280;5455;53.224;6.000;2023-05-02T13:23:21;102850.56;;;12.74;58.92
10806;BME280;5455;53.224;6.000;2023-05-02T13:25:48;102853.63;;;12.98;58.04
10806;BME280;5455;53.224;6.000;2023-05-02T13:28:15;102860.34;;;13.14;53.74
10806;BME280;5455;53.224;6.000;2023-05-02T13:30:42;102852.34;;;12.95;56.25
10806;BME280;5455;53.224;6.000;2023-05-02T13:33:09;102851.22;;;13.31;54.67
10806;BME280;5455;53.224;6.000;2023-05-02T13:35:36;102861.75;;;12.43;54.18
10806;BME280;5455;53.224;6.000;2023-05-02T13:38:03;102854.97;;;12.09;55.30
10806;BME280;5455;53.224;6.000;2023-05-02T13:40:30;102860.69;;;12.13;55.43
10806;BME280;5455;53.224;6.000;2023-05-02T13:42:57;102853.97;;;12.05;56.99
10806;BME280;5455;53.224;6.000;2023-05-02T13:45:24;102862.00;;;12.24;55.96
10806;BME280;5455;53.224;6.000;2023-05-02T13:47:51;102854.72;;;12.37;56.95
10806;BME280;5455;53.224;6.000;2023-05-02T13:50:18;102861.28;;;12.75;55.86
10806;BME280;5455;53.224;6.000;2023-05-02T13:52:45;102852.81;;;12.63;57.82
10806;BME280;5455;53.224;6.000;2023-05-02T13:55:14;102856.06;;;12.65;58.44
10806;BME280;5455;53.224;6.000;2023-05-02T13:57:41;102863.38;;;11.96;62.88
10806;BME280;5455;53.224;6.000;2023-05-02T14:00:09;102874.06;;;11.58;68.53
10806;BME280;5455;53.224;6.000;2023-05-02T14:02:37;102868.44;;;11.41;69.30